createdAt,value
2018-02-20T00:02:16.002Z,-2.00
2018-02-20T00:04:43.816Z,-2.00
2018-02-20T00:07:11.592Z,-2.00
2018-02-20T00:09:39.343Z,-2.00
2018-02-20T00:12:07.153Z,-2.00
2018-02-20T00:14:34.903Z,-2.00
2018-02-20T00:17:02.668Z,-2.00
2018-02-20T00:19:30.465Z,-2.10
2018-02-20T00:21:58.218Z,-2.10
2018-02-20T00:24:25.974Z,-2.10
2018-02-20T00:26:53.776Z,-2.10
2018-02-20T00:29:22.292Z,-2.10
2018-02-20T00:31:50.038Z,-2.10
2018-02-20T00:34:17.846Z,-2.10
2018-02-20T00:36:45.591Z,-2.10
2018-02-20T00:39:13.336Z,-2.20
2018-02-20T00:41:41.276Z,-2.20
2018-02-20T00:44:09.016Z,-2.20
2018-02-20T00:46:36.757Z,-2.20
2018-02-20T00:49:04.560Z,-2.30
2018-02-20T00:51:32.328Z,-2.20
2018-02-20T00:54:00.073Z,-2.30
2018-02-20T00:56:28.653Z,-2.30
2018-02-20T00:58:57.165Z,-2.30
2018-02-20T01:01:24.922Z,-2.30
2018-02-20T01:03:53.030Z,-2.30
2018-02-20T01:06:20.774Z,-2.30
2018-02-20T01:08:48.524Z,-2.30
2018-02-20T01:11:16.324Z,-2.30
2018-02-20T01:13:44.065Z,-2.40
2018-02-20T01:16:11.809Z,-2.40
2018-02-20T01:18:39.603Z,-2.40
2018-02-20T01:21:07.341Z,-2.40
2018-02-20T01:23:35.088Z,-2.40
2018-02-20T01:26:02.890Z,-2.30
2018-02-20T01:28:30.638Z,-2.40
2018-02-20T01:30:58.385Z,-2.40
2018-02-20T01:33:26.189Z,-2.40
2018-02-20T01:35:53.945Z,-2.40
2018-02-20T01:38:21.684Z,-2.40
2018-02-20T01:40:49.527Z,-2.40
2018-02-20T01:43:17.289Z,-2.50
2018-02-20T01:45:45.842Z,-2.50
2018-02-20T01:48:13.649Z,-2.50
2018-02-20T01:50:47.996Z,-2.50
2018-02-20T01:53:15.803Z,-2.60
2018-02-20T01:55:43.561Z,-2.60
2018-02-20T01:58:11.341Z,-2.50
2018-02-20T02:00:39.137Z,-2.50
2018-02-20T02:03:06.885Z,-2.50
2018-02-20T02:05:34.629Z,-2.60
2018-02-20T02:08:02.446Z,-2.60
2018-02-20T02:10:30.965Z,-2.60
2018-02-20T02:12:58.762Z,-2.60
2018-02-20T02:15:26.562Z,-2.60
2018-02-20T02:17:54.308Z,-2.70
2018-02-20T02:20:22.838Z,-2.70
2018-02-20T02:22:50.655Z,-2.70
2018-02-20T02:25:19.172Z,-2.70
2018-02-20T02:27:46.931Z,-2.70
2018-02-20T02:30:14.841Z,-2.70
2018-02-20T02:32:42.606Z,-2.70
2018-02-20T02:35:10.370Z,-2.70
2018-02-20T02:37:38.209Z,-2.70
2018-02-20T02:40:06.722Z,-2.70
2018-02-20T02:42:35.243Z,-2.70
2018-02-20T02:45:03.209Z,-2.80
2018-02-20T02:47:30.953Z,-2.80
2018-02-20T02:49:58.708Z,-2.80
2018-02-20T02:52:26.508Z,-2.90
2018-02-20T02:54:54.257Z,-2.80
2018-02-20T02:57:22.040Z,-2.80
2018-02-20T02:59:49.842Z,-2.80
2018-02-20T03:02:18.357Z,-2.80
2018-02-20T03:04:46.117Z,-2.80
2018-02-20T03:07:13.968Z,-2.80
2018-02-20T03:09:41.727Z,-2.80
2018-02-20T03:12:09.471Z,-2.80
2018-02-20T03:14:38.040Z,-2.80
2018-02-20T03:17:06.556Z,-2.80
2018-02-20T03:19:34.296Z,-2.80
2018-02-20T03:22:02.853Z,-2.80
2018-02-20T03:24:30.605Z,-2.80
2018-02-20T03:26:58.385Z,-2.80
2018-02-20T03:29:26.949Z,-2.80
2018-02-20T03:31:54.697Z,-2.80
2018-02-20T03:34:22.458Z,-2.80
2018-02-20T03:36:50.256Z,-2.80
2018-02-20T03:39:18.781Z,-2.80
2018-02-20T03:41:46.530Z,-2.80
2018-02-20T03:44:14.325Z,-2.80
2018-02-20T03:46:42.068Z,-2.80
2018-02-20T03:49:09.813Z,-2.90
2018-02-20T03:51:37.616Z,-2.90
2018-02-20T03:54:05.368Z,-2.90
2018-02-20T03:56:33.115Z,-2.90
2018-02-20T03:59:00.923Z,-2.90
2018-02-20T04:01:29.438Z,-2.90
2018-02-20T04:03:57.180Z,-3.00
2018-02-20T04:06:25.753Z,-2.90
2018-02-20T04:08:54.273Z,-2.90
2018-02-20T04:11:22.058Z,-2.90
2018-02-20T04:13:49.860Z,-2.90
2018-02-20T04:16:18.385Z,-3.00
2018-02-20T04:18:46.139Z,-3.00
2018-02-20T04:21:13.932Z,-3.00
2018-02-20T04:23:41.686Z,-3.00
2018-02-20T04:26:09.428Z,-3.00
2018-02-20T04:28:37.225Z,-3.00
2018-02-20T04:31:04.970Z,-3.00
2018-02-20T04:33:32.717Z,-3.00
2018-02-20T04:36:00.526Z,-3.00
2018-02-20T04:38:29.037Z,-3.00
2018-02-20T04:40:56.783Z,-3.10
2018-02-20T04:43:24.602Z,-3.10
2018-02-20T04:45:52.365Z,-3.00
2018-02-20T04:48:20.110Z,-3.00
2018-02-20T04:50:47.908Z,-3.00
2018-02-20T04:53:16.425Z,-3.10
2018-02-20T04:55:44.169Z,-3.10
2018-02-20T04:58:12.852Z,-3.10
2018-02-20T05:00:40.596Z,-3.10
2018-02-20T05:03:09.100Z,-3.10
2018-02-20T05:05:36.929Z,-3.10
2018-02-20T05:08:04.693Z,-3.10
2018-02-20T05:10:32.437Z,-3.00
2018-02-20T05:13:01.001Z,-3.10
2018-02-20T05:15:28.760Z,-3.10
2018-02-20T05:17:56.522Z,-3.10
2018-02-20T05:20:24.329Z,-3.10
2018-02-20T05:22:52.850Z,-3.10
2018-02-20T05:25:20.598Z,-3.10
2018-02-20T05:27:48.404Z,-3.10
2018-02-20T05:30:16.147Z,-3.10
2018-02-20T05:32:43.906Z,-3.10
2018-02-20T05:35:11.709Z,-3.10
2018-02-20T05:37:39.456Z,-3.00
2018-02-20T05:40:07.199Z,-3.00
2018-02-20T05:42:35.000Z,-3.00
2018-02-20T05:45:02.755Z,-2.90
2018-02-20T05:47:30.505Z,-3.00
2018-02-20T05:49:58.306Z,-3.00
2018-02-20T05:52:26.066Z,-3.00
2018-02-20T05:54:54.596Z,-3.00
2018-02-20T05:57:22.418Z,-3.00
2018-02-20T05:59:50.168Z,-3.00
2018-02-20T06:02:18.680Z,-2.90
2018-02-20T06:04:46.500Z,-2.90
2018-02-20T06:07:15.019Z,-2.90
2018-02-20T06:09:42.809Z,-2.90
2018-02-20T06:12:10.613Z,-2.80
2018-02-20T06:14:39.128Z,-2.80
2018-02-20T06:17:06.885Z,-2.80
2018-02-20T06:19:34.685Z,-2.80
2018-02-20T06:22:02.432Z,-2.80
2018-02-20T06:24:30.950Z,-2.70
2018-02-20T06:26:59.512Z,-2.60
2018-02-20T06:29:27.261Z,-2.70
2018-02-20T06:31:55.030Z,-2.60
2018-02-20T06:34:22.824Z,-2.60
2018-02-20T06:36:51.340Z,-2.40
2018-02-20T07:15:10.258Z,-1.50
2018-02-20T07:17:38.046Z,-1.60
2018-02-20T07:20:06.591Z,-1.20
2018-02-20T07:22:34.402Z,-1.20
2018-02-20T07:25:02.157Z,-1.00
2018-02-20T07:27:29.936Z,-0.80
2018-02-20T07:29:57.745Z,-0.40
2018-02-20T07:32:25.501Z,-0.20
2018-02-20T07:34:53.263Z,-0.40
2018-02-20T07:37:21.114Z,-0.20
2018-02-20T07:39:48.866Z,0.10
2018-02-20T07:42:16.623Z,0.50
2018-02-20T07:44:44.425Z,0.80
2018-02-20T07:47:12.185Z,1.20
2018-02-20T07:49:39.933Z,1.60
2018-02-20T07:52:07.751Z,2.00
2018-02-20T07:54:35.534Z,2.30
2018-02-20T07:57:03.282Z,2.50
2018-02-20T07:59:31.148Z,3.00
2018-02-20T08:01:58.914Z,3.50
2018-02-20T08:04:26.667Z,4.00
2018-02-20T08:06:54.499Z,4.30
2018-02-20T08:09:23.010Z,4.40
2018-02-20T08:11:50.771Z,4.30
2018-02-20T08:14:18.578Z,4.60
2018-02-20T08:16:46.330Z,5.20
2018-02-20T08:19:14.087Z,5.90
2018-02-20T08:21:41.892Z,5.70
2018-02-20T08:24:10.461Z,4.20
2018-02-20T08:26:38.984Z,3.50
2018-02-20T08:29:06.786Z,3.50
2018-02-20T08:31:34.540Z,3.00
2018-02-20T08:34:02.294Z,2.30
2018-02-20T08:36:30.102Z,1.80
2018-02-20T08:38:58.613Z,2.20
2018-02-20T08:41:26.379Z,2.10
2018-02-20T08:43:54.190Z,2.50
2018-02-20T08:46:21.946Z,3.10
2018-02-20T08:48:49.696Z,3.50
2018-02-20T08:51:17.512Z,4.50
2018-02-20T08:53:45.269Z,6.30
2018-02-20T08:56:13.018Z,7.50
2018-02-20T08:58:41.583Z,8.20
2018-02-20T09:01:09.349Z,8.20
2018-02-20T09:03:37.870Z,10.40
2018-02-20T09:06:05.668Z,10.40
2018-02-20T09:08:33.427Z,11.60
2018-02-20T09:11:01.180Z,12.10
2018-02-20T09:13:28.987Z,11.20
2018-02-20T09:15:57.528Z,10.10
2018-02-20T09:18:25.281Z,10.10
2018-02-20T09:20:53.077Z,9.90
2018-02-20T09:23:20.829Z,9.50
2018-02-20T09:25:48.589Z,8.40
2018-02-20T09:28:16.396Z,6.60
2018-02-20T09:30:44.150Z,5.50
2018-02-20T09:33:11.894Z,4.80
2018-02-20T09:35:40.474Z,3.50
2018-02-20T09:38:09.002Z,2.80
2018-02-20T09:40:36.774Z,2.70
2018-02-20T09:43:04.575Z,2.60
2018-02-20T09:45:33.107Z,2.70
2018-02-20T09:48:00.849Z,2.70
2018-02-20T09:50:28.715Z,2.60
2018-02-20T09:52:56.466Z,2.40
2018-02-20T09:55:24.276Z,2.50
2018-02-20T09:57:52.071Z,2.60
2018-02-20T10:00:20.583Z,2.80
2018-02-20T10:02:48.329Z,2.80
2018-02-20T10:05:16.138Z,2.90
2018-02-20T10:07:43.903Z,3.00
2018-02-20T10:10:11.717Z,3.00
2018-02-20T10:12:39.539Z,3.10
2018-02-20T10:15:07.306Z,3.20
2018-02-20T10:17:35.070Z,3.00
2018-02-20T10:20:02.888Z,2.60
2018-02-20T10:22:30.781Z,2.40
2018-02-20T10:24:58.530Z,2.30
2018-02-20T10:27:26.378Z,2.50
2018-02-20T10:29:54.136Z,2.40
2018-02-20T10:32:21.910Z,2.40
2018-02-20T10:34:49.717Z,2.50
2018-02-20T10:37:17.467Z,2.60
2018-02-20T10:39:45.240Z,2.70
2018-02-20T10:42:13.042Z,2.60
2018-02-20T10:44:40.809Z,2.50
2018-02-20T10:47:08.558Z,2.50
2018-02-20T10:49:37.250Z,2.60
2018-02-20T10:52:04.995Z,2.70
2018-02-20T10:54:32.742Z,2.70
2018-02-20T10:57:01.311Z,3.00
2018-02-20T10:59:29.069Z,2.90
2018-02-20T11:01:56.829Z,2.90
2018-02-20T11:04:24.642Z,3.00
2018-02-20T11:06:52.389Z,3.10
2018-02-20T11:09:20.148Z,3.10
2018-02-20T11:11:47.956Z,3.30
2018-02-20T11:14:15.734Z,3.30
2018-02-20T11:16:44.390Z,3.30
2018-02-20T11:19:11.426Z,3.30
2018-02-20T11:21:39.190Z,3.40
2018-02-20T11:24:06.978Z,3.40
2018-02-20T11:26:34.788Z,3.30
2018-02-20T11:29:02.798Z,3.20
2018-02-20T11:31:30.553Z,3.10
2018-02-20T11:33:58.357Z,2.90
2018-02-20T11:36:26.884Z,2.80
2018-02-20T11:38:54.634Z,2.80
2018-02-20T11:41:22.433Z,2.60
2018-02-20T11:43:50.958Z,2.80
2018-02-20T11:46:18.730Z,2.70
2018-02-20T11:48:46.541Z,2.70
2018-02-20T11:51:14.286Z,2.70
2018-02-20T11:53:42.033Z,2.70
2018-02-20T11:56:10.084Z,2.80
2018-02-20T11:58:37.834Z,2.80
2018-02-20T12:01:05.583Z,2.60
2018-02-20T12:03:34.186Z,2.90
2018-02-20T12:06:01.939Z,2.90
2018-02-20T12:08:30.454Z,2.80
2018-02-20T12:10:58.253Z,2.80
2018-02-20T12:13:26.048Z,2.70
2018-02-20T12:15:53.817Z,2.70
2018-02-20T12:18:21.623Z,2.80
2018-02-20T12:20:49.374Z,2.90
2018-02-20T12:24:45.118Z,2.80
2018-02-20T12:27:12.874Z,2.80
2018-02-20T12:29:40.625Z,2.90
2018-02-20T12:32:08.446Z,3.00
2018-02-20T12:34:36.207Z,3.00
2018-02-20T12:37:03.962Z,3.00
2018-02-20T12:39:31.774Z,3.10
2018-02-20T12:41:59.526Z,3.10
2018-02-20T12:44:27.282Z,3.20
2018-02-20T12:46:55.330Z,3.20
2018-02-20T12:49:23.080Z,3.20
2018-02-20T12:51:50.830Z,3.20
2018-02-20T12:54:19.404Z,3.30
2018-02-20T12:56:47.958Z,3.30
2018-02-20T12:59:16.518Z,3.30
2018-02-20T13:01:45.137Z,3.40
2018-02-20T13:04:12.883Z,3.40
2018-02-20T13:06:40.648Z,3.50
2018-02-20T13:09:08.456Z,3.70
2018-02-20T13:11:36.238Z,3.70
2018-02-20T13:14:04.006Z,3.70
2018-02-20T13:16:31.819Z,3.90
2018-02-20T13:19:00.338Z,3.80
2018-02-20T13:21:28.084Z,3.80
2018-02-20T13:23:55.886Z,3.80
2018-02-20T13:26:23.629Z,3.90
2018-02-20T13:28:51.380Z,3.90
2018-02-20T13:31:19.194Z,3.70
2018-02-20T13:33:46.939Z,3.70
2018-02-20T13:36:14.687Z,3.70
2018-02-20T13:38:42.491Z,3.70
2018-02-20T13:41:11.007Z,3.80
2018-02-20T13:43:38.754Z,3.80
2018-02-20T13:46:06.563Z,3.90
2018-02-20T13:48:34.310Z,3.80
2018-02-20T13:51:02.057Z,3.90
2018-02-20T13:53:29.858Z,3.80
2018-02-20T13:55:57.602Z,3.80
2018-02-20T13:58:25.372Z,3.80
2018-02-20T14:00:53.231Z,3.90
2018-02-20T14:03:20.980Z,3.90
2018-02-20T14:05:48.783Z,3.90
2018-02-20T14:08:17.363Z,3.90
2018-02-20T14:10:45.125Z,4.00
2018-02-20T14:13:12.873Z,4.00
2018-02-20T14:15:40.701Z,3.90
2018-02-20T14:18:08.453Z,3.80
2018-02-20T14:20:36.209Z,3.70
2018-02-20T14:23:04.042Z,3.70
2018-02-20T14:25:32.604Z,3.60
2018-02-20T14:28:00.372Z,3.60
2018-02-20T14:30:28.199Z,3.60
2018-02-20T14:32:55.953Z,3.60
2018-02-20T14:35:23.713Z,3.60
2018-02-20T14:37:51.530Z,3.70
2018-02-20T14:40:19.287Z,3.60
2018-02-20T14:42:47.034Z,3.60
2018-02-20T14:45:14.835Z,3.60
2018-02-20T14:47:43.354Z,3.50
2018-02-20T14:50:11.114Z,3.50
2018-02-20T14:52:38.916Z,3.40
2018-02-20T14:55:06.660Z,3.40
2018-02-20T14:57:34.410Z,3.40
2018-02-20T15:00:02.210Z,3.30
2018-02-20T15:02:30.742Z,3.30
2018-02-20T15:04:58.502Z,3.30
2018-02-20T15:07:26.309Z,3.20
2018-02-20T15:09:54.067Z,3.20
2018-02-20T15:12:21.819Z,3.20
2018-02-20T15:14:49.626Z,3.20
2018-02-20T15:17:17.390Z,3.20
2018-02-20T15:19:45.163Z,3.10
2018-02-20T15:22:12.973Z,3.10
2018-02-20T15:24:40.725Z,3.00
2018-02-20T15:27:08.487Z,3.00
2018-02-20T15:29:36.297Z,2.90
2018-02-20T15:32:04.048Z,2.90
2018-02-20T15:34:32.566Z,2.80
2018-02-20T15:37:00.376Z,2.80
2018-02-20T15:39:28.894Z,2.80
2018-02-20T15:41:56.852Z,2.80
2018-02-20T15:44:24.670Z,2.70
2018-02-20T15:46:52.431Z,2.70
2018-02-20T15:49:20.222Z,2.60
2018-02-20T15:51:48.071Z,2.60
2018-02-20T15:54:16.586Z,2.60
2018-02-20T15:56:44.342Z,2.60
2018-02-20T15:59:12.149Z,2.50
2018-02-20T16:01:40.714Z,2.50
2018-02-20T16:04:08.472Z,2.50
2018-02-20T16:06:36.274Z,2.50
2018-02-20T16:09:04.057Z,2.40
2018-02-20T16:11:32.575Z,2.30
2018-02-20T16:14:15.294Z,2.20
2018-02-20T16:16:43.073Z,2.20
2018-02-20T16:19:11.628Z,2.00
2018-02-20T16:21:39.427Z,2.00
2018-02-20T16:24:07.381Z,2.00
2018-02-20T16:26:35.135Z,1.90
2018-02-20T16:29:02.936Z,1.80
2018-02-20T16:31:31.471Z,1.60
2018-02-20T16:33:59.244Z,1.60
2018-02-20T16:36:27.053Z,1.60
2018-02-20T16:38:54.817Z,1.50
2018-02-20T16:41:22.572Z,1.40
2018-02-20T16:43:51.138Z,1.30
2018-02-20T16:46:19.663Z,1.20
2018-02-20T16:48:47.414Z,1.20
2018-02-20T16:51:16.208Z,1.20
2018-02-20T16:53:43.965Z,1.20
2018-02-20T16:56:11.714Z,1.10
2018-02-20T16:58:39.521Z,1.00
2018-02-20T17:01:07.275Z,0.90
2018-02-20T17:03:35.031Z,0.90
2018-02-20T17:06:02.833Z,0.90
2018-02-20T17:08:30.598Z,0.90
2018-02-20T17:10:59.135Z,0.80
2018-02-20T17:13:26.947Z,0.80
2018-02-20T17:15:54.700Z,0.70
2018-02-20T17:18:23.225Z,0.60
2018-02-20T17:20:51.038Z,0.60
2018-02-20T17:23:18.796Z,0.60
2018-02-20T17:25:46.557Z,0.50
2018-02-20T17:28:14.360Z,0.50
2018-02-20T17:30:42.110Z,0.50
2018-02-20T17:33:10.626Z,0.40
2018-02-20T17:35:38.426Z,0.40
2018-02-20T17:38:06.191Z,0.40
2018-02-20T17:40:33.996Z,0.40
2018-02-20T17:43:01.811Z,0.40
2018-02-20T17:45:29.577Z,0.30
2018-02-20T17:47:57.327Z,0.40
2018-02-20T17:50:25.138Z,0.40
2018-02-20T17:52:52.916Z,0.30
2018-02-20T17:55:20.696Z,0.30
2018-02-20T17:57:48.508Z,0.30
2018-02-20T18:00:16.294Z,0.40
2018-02-20T18:02:44.050Z,0.30
2018-02-20T18:05:11.884Z,0.30
2018-02-20T18:07:40.413Z,0.30
2018-02-20T18:10:08.198Z,0.30
2018-02-20T18:12:36.013Z,0.30
2018-02-20T18:15:03.834Z,0.30
2018-02-20T18:17:31.596Z,0.30
2018-02-20T18:19:59.447Z,0.20
2018-02-20T18:22:27.210Z,0.20
2018-02-20T18:24:54.994Z,0.20
2018-02-20T18:27:23.047Z,0.20
2018-02-20T18:29:50.828Z,0.10
2018-02-20T18:32:19.373Z,0.10
2018-02-20T18:34:47.207Z,0.10
2018-02-20T18:37:14.966Z,0.10
2018-02-20T18:39:42.733Z,0.00
2018-02-20T18:42:10.549Z,-0.10
2018-02-20T18:44:38.363Z,-0.10
2018-02-20T18:47:06.123Z,-0.10
2018-02-20T18:49:33.926Z,-0.10
2018-02-20T18:52:01.690Z,-0.10
2018-02-20T18:54:29.459Z,-0.20
2018-02-20T18:56:57.325Z,-0.20
2018-02-20T18:59:25.093Z,-0.10
2018-02-20T19:01:52.877Z,-0.20
2018-02-20T19:04:20.689Z,-0.30
2018-02-20T19:06:48.456Z,-0.30
2018-02-20T19:09:16.216Z,-0.30
2018-02-20T19:11:44.800Z,-0.40
2018-02-20T19:14:12.604Z,-0.40
2018-02-20T19:16:40.366Z,-0.40
2018-02-20T19:19:08.241Z,-0.40
2018-02-20T19:21:35.999Z,-0.50
2018-02-20T19:24:03.787Z,-0.50
2018-02-20T19:26:31.621Z,-0.60
2018-02-20T19:28:59.654Z,-0.60
2018-02-20T19:31:27.457Z,-0.60
2018-02-20T19:33:55.315Z,-0.60
2018-02-20T19:36:23.074Z,-0.70
2018-02-20T19:38:51.594Z,-0.80
2018-02-20T19:41:19.417Z,-0.80
2018-02-20T19:43:47.186Z,-0.80
2018-02-20T19:46:14.989Z,-0.80
2018-02-20T19:48:42.843Z,-0.80
2018-02-20T19:51:10.620Z,-0.90
2018-02-20T19:53:38.390Z,-0.90
2018-02-20T19:56:06.229Z,-0.80
2018-02-20T19:58:33.990Z,-0.90
2018-02-20T20:01:01.786Z,-0.90
2018-02-20T20:03:30.227Z,-0.90
2018-02-20T20:05:57.983Z,-1.00
2018-02-20T20:08:26.418Z,-1.10
2018-02-20T20:10:54.314Z,-1.10
2018-02-20T20:13:22.070Z,-1.20
2018-02-20T20:15:49.838Z,-1.10
2018-02-20T20:18:17.664Z,-1.20
2018-02-20T20:20:48.058Z,-1.20
2018-02-20T20:23:13.322Z,-1.20
2018-02-20T20:25:41.148Z,-1.30
2018-02-20T20:28:08.921Z,-1.30
2018-02-20T20:30:37.454Z,-1.20
2018-02-20T20:33:05.279Z,-1.30
2018-02-20T20:35:33.828Z,-1.30
2018-02-20T20:38:01.592Z,-1.30
2018-02-20T20:40:29.483Z,-1.30
2018-02-20T20:42:57.279Z,-1.30
2018-02-20T20:45:25.167Z,-1.40
2018-02-20T20:47:52.979Z,-1.50
2018-02-20T20:50:20.802Z,-1.50
2018-02-20T20:52:49.510Z,-1.60
2018-02-20T20:55:18.238Z,-1.80
2018-02-20T20:57:46.014Z,-1.70
2018-02-20T21:00:13.779Z,-1.80
2018-02-20T21:02:41.807Z,-1.80
2018-02-20T21:05:09.788Z,-1.80
2018-02-20T21:07:37.546Z,-1.70
2018-02-20T21:10:05.371Z,-1.70
2018-02-20T21:12:33.911Z,-1.60
2018-02-20T21:15:02.463Z,-1.60
2018-02-20T21:17:30.278Z,-1.60
2018-02-20T21:19:58.059Z,-1.60
2018-02-20T21:22:26.593Z,-1.80
2018-02-20T21:24:54.411Z,-1.80
2018-02-20T21:27:22.186Z,-1.80
2018-02-20T21:29:50.007Z,-1.80
2018-02-20T21:32:17.828Z,-1.90
2018-02-20T21:34:45.600Z,-1.90
2018-02-20T21:37:13.459Z,-1.90
2018-02-20T21:39:41.669Z,-1.80
2018-02-20T21:42:09.430Z,-1.90
2018-02-20T21:44:37.223Z,-1.90
2018-02-20T21:47:05.821Z,-1.90
2018-02-20T21:49:33.622Z,-1.90
2018-02-20T21:52:01.440Z,-1.90
2018-02-20T21:54:29.296Z,-1.90
2018-02-20T21:56:57.853Z,-1.90
2018-02-20T21:59:25.611Z,-1.90
2018-02-20T22:01:54.222Z,-2.00
2018-02-20T22:04:22.756Z,-2.00
2018-02-20T22:06:50.517Z,-2.00
2018-02-20T22:09:18.326Z,-2.10
2018-02-20T22:11:46.086Z,-2.20
2018-02-20T22:14:14.635Z,-2.20
2018-02-20T22:16:42.449Z,-2.30
2018-02-20T22:19:10.231Z,-2.30
2018-02-20T22:21:37.996Z,-2.30
2018-02-20T22:24:05.822Z,-2.30
2018-02-20T22:26:33.587Z,-2.30
2018-02-20T22:29:01.347Z,-2.40
2018-02-20T22:31:29.165Z,-2.40
2018-02-20T22:33:56.936Z,-2.50
2018-02-20T22:36:24.696Z,-2.50
2018-02-20T22:38:52.505Z,-2.40
2018-02-20T22:41:20.270Z,-2.50
2018-02-20T22:43:48.042Z,-2.50
2018-02-20T22:46:15.866Z,-2.50
2018-02-20T22:48:44.418Z,-2.60
2018-02-20T22:51:12.193Z,-2.60
2018-02-20T22:53:40.185Z,-2.50
2018-02-20T22:56:08.731Z,-2.60
2018-02-20T22:58:36.551Z,-2.60
2018-02-20T23:01:04.380Z,-2.60
2018-02-20T23:03:32.915Z,-2.60
2018-02-20T23:06:00.687Z,-2.70
2018-02-20T23:08:28.531Z,-2.70
2018-02-20T23:10:56.310Z,-2.70
2018-02-20T23:13:24.087Z,-2.60
2018-02-20T23:15:51.894Z,-2.60
2018-02-20T23:18:19.688Z,-2.70
2018-02-20T23:20:47.493Z,-2.60
2018-02-20T23:23:16.078Z,-2.70
2018-02-20T23:25:43.861Z,-2.70
2018-02-20T23:28:11.633Z,-2.70
2018-02-20T23:30:39.446Z,-2.70
2018-02-20T23:33:07.206Z,-2.70
2018-02-20T23:35:34.971Z,-2.70
2018-02-20T23:38:02.792Z,-2.80
2018-02-20T23:40:30.584Z,-2.80
2018-02-20T23:42:58.344Z,-2.80
2018-02-20T23:45:26.168Z,-2.70
2018-02-20T23:47:53.930Z,-2.80
2018-02-20T23:50:21.714Z,-2.80
2018-02-20T23:52:49.545Z,-2.80
2018-02-20T23:55:17.322Z,-2.80
2018-02-20T23:57:45.121Z,-2.80
